Time;durP1;ratioP1;P1;durP2;ratioP2;P2;SDS_P1;SDS_P2;PMS_P1;PMS_P2;Temp;Humidity;BMP_temperature;BMP_pressure;BME280_temperature;BME280_humidity;BME280_pressure;Samples;Min_cycle;Max_cycle;Signal;HPM_P1;HPM_P2
2022/06/30 00:00:57;;;;;;;5.80;3.30;;;18.90;99.90;;;;;;5100722;28;20179;-43
2022/06/30 00:03:22;;;;;;;6.47;3.03;;;18.90;99.90;;;;;;5101224;28;20183;-43
2022/06/30 00:05:48;;;;;;;7.50;3.37;;;18.80;99.90;;;;;;5100579;28;20254;-44
2022/06/30 00:08:14;;;;;;;6.10;3.27;;;18.80;99.90;;;;;;5098956;28;20573;-44
2022/06/30 00:10:39;;;;;;;4.30;3.47;;;18.80;99.90;;;;;;5100462;28;20202;-44
2022/06/30 00:13:05;;;;;;;3.40;3.10;;;18.70;99.90;;;;;;5101063;28;20216;-43
2022/06/30 00:15:31;;;;;;;4.00;2.83;;;18.60;99.90;;;;;;5100602;28;20638;-43
2022/06/30 00:17:57;;;;;;;5.23;2.83;;;18.70;99.90;;;;;;5100670;28;20171;-43
2022/06/30 00:20:22;;;;;;;3.60;2.93;;;18.50;99.90;;;;;;5100183;28;20202;-44
2022/06/30 00:22:48;;;;;;;6.23;2.60;;;18.50;99.90;;;;;;5099959;28;20241;-44
2022/06/30 00:25:14;;;;;;;2.87;2.60;;;18.40;99.90;;;;;;5099927;28;20175;-42
2022/06/30 00:27:40;;;;;;;5.93;2.97;;;18.40;99.90;;;;;;5100414;28;20175;-44
2022/06/30 00:30:06;;;;;;;3.90;2.83;;;18.30;99.90;;;;;;5099765;28;20206;-45
2022/06/30 00:32:32;;;;;;;3.77;2.23;;;18.30;99.90;;;;;;5099376;28;20718;-45
2022/06/30 00:34:58;;;;;;;5.10;2.90;;;18.20;99.90;;;;;;5100095;28;20175;-44
2022/06/30 00:37:24;;;;;;;6.87;3.17;;;18.20;99.90;;;;;;5100117;28;20239;-45
2022/06/30 00:39:49;;;;;;;6.07;3.10;;;18.10;99.90;;;;;;5099057;28;20202;-44
2022/06/30 00:42:15;;;;;;;9.17;3.10;;;18.10;99.90;;;;;;5099912;28;20204;-44
2022/06/30 00:44:40;;;;;;;4.37;3.10;;;18.10;99.90;;;;;;5099330;28;20527;-45
2022/06/30 00:47:06;;;;;;;6.37;3.07;;;18.00;99.90;;;;;;5099618;28;20240;-45
2022/06/30 00:49:34;;;;;;;4.77;2.53;;;17.90;99.90;;;;;;5099985;28;20206;-44
2022/06/30 00:52:02;;;;;;;8.67;2.53;;;17.80;99.90;;;;;;5099740;28;20202;-44
2022/06/30 00:54:29;;;;;;;4.80;2.57;;;17.80;99.90;;;;;;5098618;28;20182;-45
2022/06/30 00:56:57;;;;;;;5.73;3.10;;;17.80;99.90;;;;;;5099410;28;20178;-44
2022/06/30 00:59:24;;;;;;;6.10;2.90;;;17.70;99.90;;;;;;5099595;28;20203;-44
2022/06/30 01:01:50;;;;;;;4.97;2.97;;;17.70;99.90;;;;;;5099556;28;20182;-44
2022/06/30 01:04:17;;;;;;;6.10;2.90;;;17.70;99.90;;;;;;5099695;28;20187;-44
2022/06/30 01:06:44;;;;;;;3.03;2.57;;;17.70;99.90;;;;;;5099890;28;20179;-44
2022/06/30 01:09:11;;;;;;;6.83;3.20;;;17.60;99.90;;;;;;5100304;28;20226;-46
2022/06/30 01:14:21;;;;;;;8.20;3.10;;;17.50;99.90;;;;;;5100704;28;20166;-44
2022/06/30 01:16:47;;;;;;;4.77;2.80;;;17.50;99.90;;;;;;5100445;28;20172;-44
2022/06/30 01:19:14;;;;;;;5.70;2.83;;;17.40;99.90;;;;;;5100873;28;20212;-43
2022/06/30 01:21:40;;;;;;;5.83;3.10;;;17.40;99.90;;;;;;5099250;28;20269;-44
2022/06/30 01:24:06;;;;;;;9.30;3.73;;;17.30;99.90;;;;;;5100106;28;20202;-42
2022/06/30 01:26:32;;;;;;;8.27;3.67;;;17.30;99.90;;;;;;5099590;28;20179;-44
2022/06/30 01:28:57;;;;;;;5.37;3.50;;;17.30;99.90;;;;;;5099559;28;20284;-44
2022/06/30 01:31:23;;;;;;;6.07;3.07;;;17.20;99.90;;;;;;5100166;28;20207;-44
2022/06/30 01:33:50;;;;;;;10.33;3.13;;;17.10;99.90;;;;;;5099668;28;20233;-45
2022/06/30 01:36:15;;;;;;;11.10;3.30;;;17.10;99.90;;;;;;5099777;28;20529;-44
2022/06/30 01:38:41;;;;;;;8.43;2.90;;;17.00;99.90;;;;;;5099743;28;20228;-44
2022/06/30 01:41:07;;;;;;;8.47;3.60;;;17.00;99.90;;;;;;5099300;28;20191;-45
2022/06/30 01:43:33;;;;;;;8.37;3.50;;;17.00;99.90;;;;;;5100771;28;20182;-44
2022/06/30 01:45:58;;;;;;;4.70;3.00;;;17.00;99.90;;;;;;5100273;28;20179;-44
2022/06/30 01:48:24;;;;;;;4.73;3.80;;;16.90;99.90;;;;;;5099561;28;20182;-44
2022/06/30 01:50:50;;;;;;;5.43;3.17;;;16.90;99.90;;;;;;5100599;28;20209;-44
2022/06/30 01:53:15;;;;;;;6.87;3.33;;;16.90;99.90;;;;;;5100164;28;20623;-44
2022/06/30 01:55:41;;;;;;;6.33;3.63;;;16.90;99.90;;;;;;5100054;28;20257;-44
2022/06/30 01:58:07;;;;;;;6.60;3.43;;;16.90;99.90;;;;;;5100143;28;20167;-44
2022/06/30 02:00:32;;;;;;;5.90;3.47;;;16.90;99.90;;;;;;5100017;28;20203;-43
2022/06/30 02:02:58;;;;;;;4.27;3.07;;;16.80;99.90;;;;;;5101244;28;20194;-43
2022/06/30 02:05:25;;;;;;;6.40;3.77;;;16.80;99.90;;;;;;5100015;28;20187;-43
2022/06/30 02:07:51;;;;;;;3.97;3.27;;;16.80;99.90;;;;;;5099463;28;20567;-44
2022/06/30 02:10:21;;;;;;;7.83;3.60;;;16.80;99.90;;;;;;5100004;28;20248;-45
2022/06/30 02:12:47;;;;;;;7.17;3.40;;;16.70;99.90;;;;;;5100623;28;20182;-45
2022/06/30 02:15:19;;;;;;;6.90;2.90;;;16.70;99.90;;;;;;5099919;28;20187;-45
2022/06/30 02:17:45;;;;;;;4.57;3.10;;;16.70;99.90;;;;;;5100054;28;20183;-45
2022/06/30 02:20:11;;;;;;;6.97;3.43;;;16.70;99.90;;;;;;5100156;28;20191;-44
2022/06/30 02:22:38;;;;;;;6.67;3.33;;;16.70;99.90;;;;;;5100190;28;20179;-44
2022/06/30 02:25:06;;;;;;;8.20;3.90;;;16.60;99.90;;;;;;5100409;28;20184;-44
2022/06/30 02:27:32;;;;;;;11.43;3.93;;;16.60;99.90;;;;;;5099684;28;20227;-45
2022/06/30 02:29:58;;;;;;;6.73;3.80;;;16.60;99.90;;;;;;5100691;28;20202;-42
2022/06/30 02:32:23;;;;;;;7.07;3.90;;;16.50;99.90;;;;;;5100306;28;20202;-44
2022/06/30 02:34:51;;;;;;;10.27;4.30;;;16.50;99.90;;;;;;5100199;28;20182;-44
2022/06/30 02:37:17;;;;;;;11.87;4.40;;;16.40;99.90;;;;;;5099651;28;20175;-43
2022/06/30 02:39:43;;;;;;;10.93;4.30;;;16.40;99.90;;;;;;5100579;28;20207;-43
2022/06/30 02:42:09;;;;;;;7.07;3.53;;;16.30;99.90;;;;;;5100310;28;20186;-45
2022/06/30 02:44:35;;;;;;;6.80;3.50;;;16.20;99.90;;;;;;5099835;28;20265;-45
2022/06/30 02:47:02;;;;;;;7.13;4.03;;;16.20;99.90;;;;;;5100128;28;20656;-44
2022/06/30 02:49:27;;;;;;;6.00;3.30;;;16.20;99.90;;;;;;5100000;28;20576;-44
2022/06/30 02:51:53;;;;;;;7.30;3.73;;;16.20;99.90;;;;;;5100063;28;20207;-44
2022/06/30 02:54:18;;;;;;;10.60;4.10;;;16.20;99.90;;;;;;5099793;28;20186;-43
2022/06/30 02:56:45;;;;;;;5.07;3.63;;;16.10;99.90;;;;;;5100243;28;20543;-44
2022/06/30 02:59:11;;;;;;;7.57;3.53;;;16.10;99.90;;;;;;5100240;28;20199;-45
2022/06/30 03:01:36;;;;;;;9.70;4.00;;;16.10;99.90;;;;;;5099606;28;20179;-43
2022/06/30 03:04:03;;;;;;;6.47;3.30;;;16.10;99.90;;;;;;5099268;28;20545;-45
2022/06/30 03:06:30;;;;;;;6.77;3.57;;;16.00;99.90;;;;;;5099230;28;20529;-44
2022/06/30 03:08:57;;;;;;;10.60;3.43;;;16.00;99.90;;;;;;5097500;28;20218;-44
2022/06/30 03:11:23;;;;;;;8.47;3.40;;;16.00;99.90;;;;;;5099009;28;20201;-44
2022/06/30 03:13:48;;;;;;;7.10;3.73;;;16.00;99.90;;;;;;5099217;28;20238;-44
2022/06/30 03:16:14;;;;;;;7.77;3.83;;;15.90;99.90;;;;;;5099257;28;20210;-44
2022/06/30 03:18:40;;;;;;;7.53;4.03;;;15.90;99.90;;;;;;5098752;28;20190;-43
2022/06/30 03:21:07;;;;;;;6.80;3.73;;;15.90;99.90;;;;;;5103139;28;20175;-44
2022/06/30 03:23:33;;;;;;;8.73;4.53;;;15.90;99.90;;;;;;5103243;28;20190;-44
2022/06/30 03:25:59;;;;;;;6.60;4.00;;;15.80;99.90;;;;;;5103496;28;20264;-43
2022/06/30 03:28:25;;;;;;;4.67;3.60;;;15.80;99.90;;;;;;5101888;28;20183;-44
2022/06/30 03:30:51;;;;;;;4.67;3.37;;;15.70;99.90;;;;;;5103186;28;20199;-45
2022/06/30 03:33:17;;;;;;;7.27;4.00;;;15.80;99.90;;;;;;5100976;28;20517;-44
2022/06/30 03:35:44;;;;;;;4.00;3.60;;;15.70;99.90;;;;;;5102123;28;20214;-44
2022/06/30 03:38:10;;;;;;;5.30;3.50;;;15.70;99.90;;;;;;5102099;28;20182;-44
2022/06/30 03:40:36;;;;;;;7.73;4.40;;;15.70;99.90;;;;;;5101151;28;20203;-45
2022/06/30 03:43:02;;;;;;;5.60;4.27;;;15.70;99.90;;;;;;5102001;28;20210;-44
2022/06/30 03:45:28;;;;;;;9.10;4.67;;;15.60;99.90;;;;;;5102297;28;20179;-44
2022/06/30 03:47:53;;;;;;;8.90;3.70;;;15.60;99.90;;;;;;5101865;28;20178;-44
2022/06/30 03:50:19;;;;;;;10.97;3.90;;;15.60;99.90;;;;;;5101235;28;20202;-44
2022/06/30 03:52:45;;;;;;;9.80;4.23;;;15.60;99.90;;;;;;5101719;28;20231;-44
2022/06/30 03:55:11;;;;;;;7.87;3.50;;;15.60;99.90;;;;;;5101550;28;20242;-44
2022/06/30 03:57:37;;;;;;;10.57;4.30;;;15.60;99.90;;;;;;5101575;28;20179;-44
2022/06/30 04:00:04;;;;;;;9.53;3.70;;;15.60;99.90;;;;;;5101041;28;20187;-44
2022/06/30 04:02:30;;;;;;;9.70;3.70;;;15.60;99.90;;;;;;5101040;28;20238;-44
2022/06/30 04:04:56;;;;;;;7.00;3.97;;;15.50;99.90;;;;;;5101055;28;20179;-42
2022/06/30 04:07:21;;;;;;;7.87;4.23;;;15.60;99.90;;;;;;5100404;28;20198;-44
2022/06/30 04:09:47;;;;;;;8.60;4.23;;;15.60;99.90;;;;;;5099994;28;20203;-45
2022/06/30 04:12:13;;;;;;;9.70;4.30;;;15.60;99.90;;;;;;5100633;28;20207;-45
2022/06/30 04:14:38;;;;;;;9.83;3.90;;;15.60;99.90;;;;;;5100871;28;20275;-44
2022/06/30 04:17:04;;;;;;;7.43;3.87;;;15.60;99.90;;;;;;5102355;28;20183;-44
2022/06/30 04:19:30;;;;;;;14.63;4.20;;;15.50;99.90;;;;;;5102342;28;20249;-44
2022/06/30 04:21:56;;;;;;;6.57;3.80;;;15.60;99.90;;;;;;5101858;28;20277;-45
2022/06/30 04:24:22;;;;;;;7.90;4.30;;;15.60;99.90;;;;;;5103263;28;20207;-44
2022/06/30 04:26:47;;;;;;;6.47;4.40;;;15.60;99.90;;;;;;5101603;28;20557;-43
2022/06/30 04:29:13;;;;;;;11.33;3.90;;;15.60;99.90;;;;;;5099930;28;20203;-44
2022/06/30 04:34:22;;;;;;;9.77;4.70;;;15.70;99.90;;;;;;5101023;28;20166;-44
2022/06/30 04:36:48;;;;;;;5.90;4.33;;;15.70;99.90;;;;;;5099554;28;20178;-45
2022/06/30 04:39:14;;;;;;;10.37;4.10;;;15.70;99.90;;;;;;5099263;28;20224;-43
2022/06/30 04:41:39;;;;;;;7.17;4.07;;;15.70;99.90;;;;;;5100919;28;20193;-43
2022/06/30 04:44:05;;;;;;;11.40;4.43;;;15.80;99.90;;;;;;5099182;28;20661;-44
2022/06/30 04:46:31;;;;;;;8.87;4.27;;;15.80;99.90;;;;;;5099379;28;20603;-44
2022/06/30 04:48:57;;;;;;;6.50;4.27;;;15.80;99.90;;;;;;5098954;28;20206;-44
2022/06/30 04:51:23;;;;;;;13.87;5.20;;;15.90;99.90;;;;;;5098965;28;20202;-44
2022/06/30 04:53:50;;;;;;;8.63;4.70;;;15.90;99.90;;;;;;5099750;28;20178;-43
2022/06/30 04:56:17;;;;;;;8.67;4.90;;;15.90;99.90;;;;;;5099034;28;20232;-44
2022/06/30 04:58:43;;;;;;;10.33;4.40;;;16.00;99.90;;;;;;5099899;28;20205;-44
2022/06/30 05:01:11;;;;;;;6.97;4.70;;;16.00;99.90;;;;;;5099695;28;20636;-43
2022/06/30 05:03:37;;;;;;;11.93;4.53;;;16.10;99.90;;;;;;5098976;28;20179;-42
2022/06/30 05:06:03;;;;;;;14.83;4.87;;;16.10;99.90;;;;;;5098564;28;20236;-45
2022/06/30 05:08:29;;;;;;;10.97;5.07;;;16.20;99.90;;;;;;5098704;28;20251;-45
2022/06/30 05:10:55;;;;;;;12.77;4.67;;;16.30;99.90;;;;;;5098717;28;20209;-45
2022/06/30 05:13:20;;;;;;;6.90;4.30;;;16.30;99.90;;;;;;5098046;28;20178;-44
2022/06/30 05:15:46;;;;;;;12.70;5.30;;;16.40;99.90;;;;;;5097971;28;20698;-43
2022/06/30 05:18:12;;;;;;;8.30;4.90;;;16.40;99.90;;;;;;5099366;28;20200;-44
2022/06/30 05:20:39;;;;;;;15.20;6.07;;;16.60;99.90;;;;;;5098210;28;20273;-42
2022/06/30 05:23:04;;;;;;;12.00;5.93;;;16.70;99.90;;;;;;5097701;28;20576;-44
2022/06/30 05:28:14;;;;;;;14.30;5.80;;;16.80;99.90;;;;;;5097312;28;20216;-43
2022/06/30 05:30:41;;;;;;;10.63;5.37;;;17.00;99.90;;;;;;5095846;28;20218;-44
2022/06/30 05:33:07;;;;;;;8.97;4.70;;;17.10;99.90;;;;;;5097092;28;20191;-43
2022/06/30 05:35:33;;;;;;;10.43;5.60;;;17.20;99.90;;;;;;5096344;28;20225;-44
2022/06/30 05:37:58;;;;;;;9.03;5.30;;;17.30;99.90;;;;;;5098600;28;20255;-43
2022/06/30 05:40:24;;;;;;;15.53;5.27;;;17.40;99.90;;;;;;5097101;28;20210;-43
2022/06/30 05:42:50;;;;;;;11.10;5.93;;;17.50;99.90;;;;;;5096156;28;20209;-43
2022/06/30 05:45:15;;;;;;;11.30;5.97;;;17.60;99.90;;;;;;5096876;28;20179;-43
2022/06/30 05:47:51;;;;;;;9.07;5.10;;;17.70;99.90;;;;;;5096276;28;20175;-45
2022/06/30 05:50:19;;;;;;;9.80;5.57;;;17.80;99.90;;;;;;5096095;28;20267;-43
2022/06/30 05:52:45;;;;;;;7.13;4.80;;;17.90;99.90;;;;;;5096844;28;20215;-43
2022/06/30 05:55:11;;;;;;;9.10;4.60;;;18.00;99.90;;;;;;5095925;28;20297;-44
2022/06/30 05:57:52;;;;;;;9.07;4.50;;;18.20;99.90;;;;;;5095818;28;20232;-43
2022/06/30 06:00:19;;;;;;;4.87;3.73;;;18.30;99.90;;;;;;5095873;28;20255;-42
2022/06/30 06:02:45;;;;;;;9.00;3.70;;;18.50;99.90;;;;;;5095845;28;20656;-43
2022/06/30 06:05:11;;;;;;;6.80;3.53;;;18.70;99.90;;;;;;5095952;28;20174;-44
2022/06/30 06:07:37;;;;;;;5.57;3.13;;;18.90;99.90;;;;;;5096491;28;20255;-44
2022/06/30 06:10:03;;;;;;;8.07;3.60;;;19.10;99.90;;;;;;5096638;28;20199;-43
2022/06/30 06:12:29;;;;;;;8.90;3.30;;;19.40;99.90;;;;;;5097893;28;20225;-44
2022/06/30 06:14:55;;;;;;;7.17;3.30;;;19.60;99.90;;;;;;5098583;28;20179;-44
2022/06/30 06:17:20;;;;;;;9.00;3.53;;;19.80;99.90;;;;;;5099529;28;20178;-44
2022/06/30 06:19:46;;;;;;;7.87;3.60;;;20.00;99.90;;;;;;5099144;28;20230;-44
2022/06/30 06:22:11;;;;;;;4.27;3.30;;;20.10;99.90;;;;;;5099249;28;20171;-45
2022/06/30 06:24:37;;;;;;;5.47;3.10;;;20.30;99.90;;;;;;5099961;28;20175;-45
2022/06/30 06:27:03;;;;;;;7.83;3.47;;;20.50;99.90;;;;;;5099457;28;20542;-43
2022/06/30 06:29:29;;;;;;;6.90;3.37;;;20.60;99.90;;;;;;5100491;28;20203;-43
2022/06/30 06:31:55;;;;;;;9.10;3.50;;;20.80;99.90;;;;;;5098786;28;20202;-43
2022/06/30 06:34:20;;;;;;;5.73;3.13;;;21.00;99.90;;;;;;5098319;28;20167;-44
2022/06/30 06:36:46;;;;;;;7.77;3.20;;;21.20;99.90;;;;;;5095456;28;20175;-42
2022/06/30 06:39:12;;;;;;;4.37;2.50;;;21.50;99.90;;;;;;5093772;28;20199;-42
2022/06/30 06:41:37;;;;;;;7.07;2.93;;;21.80;99.90;;;;;;5094079;28;20274;-42
2022/06/30 06:44:03;;;;;;;4.57;2.73;;;21.90;99.90;;;;;;5093793;28;20175;-44
2022/06/30 06:46:29;;;;;;;4.83;2.83;;;21.90;99.90;;;;;;5094266;28;20185;-44
2022/06/30 06:48:59;;;;;;;5.80;2.87;;;22.10;99.90;;;;;;5093857;28;20233;-41
2022/06/30 06:51:24;;;;;;;6.73;2.80;;;22.40;99.90;;;;;;5093862;28;20650;-42
2022/06/30 06:53:50;;;;;;;3.67;2.87;;;22.70;99.90;;;;;;5093645;28;20316;-44
2022/06/30 06:56:16;;;;;;;4.80;2.00;;;22.80;99.90;;;;;;5093536;28;20536;-43
2022/06/30 06:58:41;;;;;;;4.60;2.50;;;23.00;99.90;;;;;;5093755;28;20206;-43
2022/06/30 07:01:07;;;;;;;10.60;2.50;;;23.00;99.90;;;;;;5093739;28;20646;-43
2022/06/30 07:03:33;;;;;;;7.10;2.67;;;23.00;99.90;;;;;;5093771;28;20179;-43
2022/06/30 07:05:58;;;;;;;5.63;2.33;;;23.10;99.90;;;;;;5093486;28;20186;-43
2022/06/30 07:08:24;;;;;;;4.13;2.30;;;23.30;99.90;;;;;;5093250;28;20194;-43
2022/06/30 07:10:50;;;;;;;6.97;2.47;;;23.30;99.90;;;;;;5093320;28;20206;-44
2022/06/30 07:13:15;;;;;;;4.77;2.30;;;23.40;99.90;;;;;;5093629;28;20262;-42
2022/06/30 07:15:41;;;;;;;7.37;2.23;;;23.60;99.90;;;;;;5093337;28;20181;-41
2022/06/30 07:18:06;;;;;;;4.80;2.07;;;23.70;99.90;;;;;;5094019;28;20230;-43
2022/06/30 07:20:32;;;;;;;2.47;1.60;;;23.80;99.90;;;;;;5093570;28;20558;-42
2022/06/30 07:22:57;;;;;;;6.70;2.40;;;23.80;99.90;;;;;;5093438;28;20607;-44
2022/06/30 07:25:23;;;;;;;6.23;2.30;;;23.90;99.90;;;;;;5092066;28;20174;-44
2022/06/30 07:27:49;;;;;;;7.30;2.20;;;24.10;99.90;;;;;;5093207;28;20224;-43
2022/06/30 07:30:15;;;;;;;10.33;2.40;;;24.20;99.90;;;;;;5093364;28;20199;-44
2022/06/30 07:32:40;;;;;;;4.20;2.53;;;24.40;99.90;;;;;;5093374;28;20234;-43
2022/06/30 07:35:06;;;;;;;8.13;2.30;;;24.50;99.90;;;;;;5093426;28;20171;-44
2022/06/30 07:37:38;;;;;;;4.33;2.50;;;24.70;99.90;;;;;;5093449;28;20174;-45
2022/06/30 07:40:04;;;;;;;5.47;3.07;;;24.80;99.90;;;;;;5093428;28;20205;-44
2022/06/30 07:42:29;;;;;;;2.63;2.00;;;24.90;99.90;;;;;;5091815;28;20183;-44
2022/06/30 07:44:55;;;;;;;3.60;2.20;;;24.90;99.90;;;;;;5093174;28;20181;-44
2022/06/30 07:47:22;;;;;;;7.10;2.30;;;24.90;99.90;;;;;;5093039;28;20182;-43
2022/06/30 07:49:48;;;;;;;11.63;2.73;;;24.90;99.90;;;;;;5092930;28;20277;-44
2022/06/30 07:52:14;;;;;;;5.30;2.30;;;25.00;99.90;;;;;;5092942;28;20285;-44
2022/06/30 07:54:39;;;;;;;8.13;2.40;;;25.10;99.90;;;;;;5092967;28;20178;-43
2022/06/30 07:57:05;;;;;;;5.57;2.37;;;25.10;99.90;;;;;;5093129;28;20186;-42
2022/06/30 07:59:31;;;;;;;7.00;2.70;;;25.20;99.90;;;;;;5092806;28;20198;-44
2022/06/30 08:01:57;;;;;;;6.80;2.23;;;25.20;99.90;;;;;;5093185;28;20575;-45
2022/06/30 08:04:22;;;;;;;6.63;2.77;;;25.30;99.90;;;;;;5093178;28;20183;-44
2022/06/30 08:06:48;;;;;;;5.13;2.90;;;25.40;99.90;;;;;;5095891;28;20240;-44
2022/06/30 08:09:13;;;;;;;8.70;2.80;;;25.40;99.90;;;;;;5095140;28;20226;-43
2022/06/30 08:11:39;;;;;;;5.93;3.17;;;25.50;99.90;;;;;;5097040;28;20203;-43
2022/06/30 08:14:05;;;;;;;8.73;2.87;;;25.50;99.90;;;;;;5096472;28;20210;-44
2022/06/30 08:16:30;;;;;;;6.00;3.20;;;25.50;99.90;;;;;;5097060;28;20174;-44
2022/06/30 08:18:56;;;;;;;11.47;3.73;;;25.40;99.90;;;;;;5096547;28;20194;-43
2022/06/30 08:21:22;;;;;;;8.30;3.07;;;25.50;99.90;;;;;;5096395;28;20210;-44
2022/06/30 08:23:47;;;;;;;9.87;2.97;;;25.60;99.90;;;;;;5096509;28;20175;-45
2022/06/30 08:26:13;;;;;;;11.70;3.90;;;25.70;99.90;;;;;;5096243;28;20171;-44
2022/06/30 08:28:38;;;;;;;6.77;2.80;;;25.60;99.90;;;;;;5096204;28;20191;-42
2022/06/30 08:31:04;;;;;;;7.70;3.07;;;25.40;99.90;;;;;;5096388;28;20283;-43
2022/06/30 08:33:30;;;;;;;6.93;3.10;;;25.20;99.90;;;;;;5096410;28;20179;-43
2022/06/30 08:35:56;;;;;;;6.40;3.10;;;25.20;99.90;;;;;;5096541;28;20253;-45
2022/06/30 08:38:21;;;;;;;6.63;2.90;;;25.30;99.90;;;;;;5096287;28;20574;-44
2022/06/30 08:43:33;;;;;;;7.53;3.10;;;25.50;99.90;;;;;;5096488;28;20208;-42
2022/06/30 08:46:00;;;;;;;7.43;3.30;;;25.70;99.90;;;;;;5095976;28;20179;-42
2022/06/30 08:48:25;;;;;;;6.23;3.47;;;25.80;99.90;;;;;;5096051;28;20250;-43
2022/06/30 08:50:58;;;;;;;8.73;3.40;;;25.90;99.90;;;;;;5096517;28;20297;-43
2022/06/30 08:53:26;;;;;;;5.63;3.93;;;26.00;99.90;;;;;;5095974;28;20165;-44
2022/06/30 08:55:52;;;;;;;8.20;4.47;;;25.90;99.90;;;;;;5096461;28;20251;-44
2022/06/30 08:58:20;;;;;;;6.00;4.10;;;25.90;99.90;;;;;;5095578;28;20250;-44
2022/06/30 09:00:46;;;;;;;10.00;4.50;;;26.00;99.90;;;;;;5095671;28;20801;-44
2022/06/30 09:03:11;;;;;;;9.10;4.43;;;25.90;99.90;;;;;;5095594;28;20262;-45
2022/06/30 09:05:39;;;;;;;6.93;4.33;;;25.80;99.90;;;;;;5095772;28;20511;-44
2022/06/30 09:08:05;;;;;;;10.30;5.00;;;25.70;99.90;;;;;;5095452;28;20198;-44
2022/06/30 09:10:30;;;;;;;9.23;4.10;;;25.80;99.90;;;;;;5095287;28;20618;-44
2022/06/30 09:13:01;;;;;;;9.60;4.10;;;25.90;99.90;;;;;;5095933;28;20178;-43
2022/06/30 09:15:29;;;;;;;9.17;4.43;;;26.00;99.90;;;;;;5095673;28;20205;-44
2022/06/30 09:17:55;;;;;;;6.43;4.30;;;25.80;99.90;;;;;;5094209;28;20186;-44
2022/06/30 09:20:33;;;;;;;7.07;4.33;;;25.60;99.90;;;;;;5095432;28;20195;-44
2022/06/30 09:22:59;;;;;;;5.83;3.50;;;25.80;99.90;;;;;;5095450;28;20228;-45
2022/06/30 09:25:30;;;;;;;5.60;3.80;;;25.90;99.90;;;;;;5095959;28;20538;-43
2022/06/30 09:27:56;;;;;;;6.60;3.77;;;25.90;99.90;;;;;;5095442;28;20238;-43
2022/06/30 09:30:24;;;;;;;5.63;3.37;;;25.90;99.90;;;;;;5097210;28;20195;-45
2022/06/30 09:32:53;;;;;;;5.67;3.57;;;25.90;99.90;;;;;;5095266;28;20198;-44
2022/06/30 09:35:21;;;;;;;7.67;3.80;;;25.90;99.90;;;;;;5094888;28;20178;-39
2022/06/30 09:38:08;;;;;;;8.73;3.13;;;26.00;99.90;;;;;;5094915;28;20174;-41
2022/06/30 09:41:04;;;;;;;6.57;2.93;;;26.20;99.90;;;;;;5094828;28;20191;-41
2022/06/30 09:43:32;;;;;;;8.87;2.77;;;26.40;99.90;;;;;;5094735;28;20744;-40
2022/06/30 09:45:57;;;;;;;8.17;3.50;;;26.50;99.90;;;;;;5095059;28;20205;-41
2022/06/30 09:48:26;;;;;;;4.70;3.20;;;26.40;99.90;;;;;;5095100;28;20233;-40
2022/06/30 09:51:00;;;;;;;10.97;2.53;;;26.40;99.90;;;;;;5094839;28;20201;-40
2022/06/30 09:53:26;;;;;;;7.77;3.07;;;26.40;99.90;;;;;;5094947;28;20175;-40
2022/06/30 09:55:52;;;;;;;11.68;3.67;;;26.50;99.90;;;;;;5095053;28;20640;-41
2022/06/30 09:58:29;;;;;;;6.73;3.33;;;26.40;99.90;;;;;;5093512;28;20213;-40
2022/06/30 10:00:55;;;;;;;7.90;3.57;;;26.30;99.90;;;;;;5094939;28;20594;-40
2022/06/30 10:03:21;;;;;;;7.73;3.67;;;26.40;99.90;;;;;;5094845;28;20218;-40
2022/06/30 10:06:06;;;;;;;8.03;3.33;;;26.50;99.90;;;;;;5094484;28;20194;-40
2022/06/30 10:08:32;;;;;;;8.13;3.10;;;26.40;99.90;;;;;;5094402;28;20198;-41
2022/06/30 10:11:00;;;;;;;5.07;3.28;;;26.40;99.90;;;;;;5095156;28;20561;-41
2022/06/30 10:13:26;;;;;;;7.60;3.95;;;26.40;99.90;;;;;;5094964;28;20167;-40
2022/06/30 10:15:55;;;;;;;9.50;3.47;;;26.30;99.90;;;;;;5094495;28;20170;-38
2022/06/30 10:18:26;;;;;;;6.97;2.90;;;26.20;99.90;;;;;;5095505;28;20167;-39
2022/06/30 10:20:53;;;;;;;6.10;2.65;;;26.10;99.90;;;;;;5094404;28;20159;-39
2022/06/30 10:23:19;;;;;;;8.98;2.80;;;26.00;99.90;;;;;;5094460;28;20197;-40
2022/06/30 10:25:48;;;;;;;4.47;2.88;;;26.00;99.90;;;;;;5094425;28;20179;-41
2022/06/30 10:28:17;;;;;;;5.85;2.95;;;26.00;99.90;;;;;;5094032;28;20182;-39
2022/06/30 10:31:04;;;;;;;6.88;2.70;;;26.10;99.90;;;;;;5093878;28;20605;-40
2022/06/30 10:33:48;;;;;;;5.80;2.92;;;26.20;99.90;;;;;;5094184;28;20167;-40
2022/06/30 10:36:25;;;;;;;5.30;3.13;;;26.20;99.90;;;;;;5094166;28;20151;-40
2022/06/30 10:39:13;;;;;;;4.10;2.90;;;26.30;99.90;;;;;;5093752;28;20669;-40
2022/06/30 10:41:47;;;;;;;8.32;2.92;;;26.30;99.90;;;;;;5093846;28;20250;-39
2022/06/30 10:44:18;;;;;;;5.72;3.05;;;26.30;99.90;;;;;;5093911;28;20170;-39
2022/06/30 10:46:56;;;;;;;6.93;3.03;;;26.30;99.90;;;;;;5095256;28;20163;-42
2022/06/30 10:49:24;;;;;;;3.80;3.20;;;26.30;99.90;;;;;;5093722;28;20653;-40
2022/06/30 10:51:50;;;;;;;4.93;2.50;;;26.30;99.90;;;;;;5093916;28;20596;-39
2022/06/30 10:54:31;;;;;;;9.98;2.75;;;26.30;99.90;;;;;;5092380;28;20175;-41
2022/06/30 10:56:58;;;;;;;6.50;2.80;;;26.40;99.90;;;;;;5093952;28;20622;-39
2022/06/30 10:59:31;;;;;;;4.47;2.90;;;26.40;99.90;;;;;;5093521;28;20272;-41
2022/06/30 11:02:11;;;;;;;5.90;2.80;;;26.50;99.90;;;;;;5093564;28;20181;-41
2022/06/30 11:04:42;;;;;;;5.15;2.88;;;26.80;99.90;;;;;;5093496;28;20174;-40
2022/06/30 11:07:13;;;;;;;4.95;2.60;;;26.80;99.90;;;;;;5093452;28;20189;-41
2022/06/30 11:09:44;;;;;;;4.55;2.70;;;26.80;99.90;;;;;;5094042;28;20546;-41
2022/06/30 11:12:15;;;;;;;5.97;2.60;;;27.10;99.90;;;;;;5093364;28;20209;-40
2022/06/30 11:14:48;;;;;;;5.82;2.60;;;27.10;99.90;;;;;;5093412;28;20206;-39
2022/06/30 11:17:19;;;;;;;4.07;2.55;;;27.30;99.90;;;;;;5093719;28;20249;-41
2022/06/30 11:19:46;;;;;;;5.00;2.60;;;27.30;99.90;;;;;;5093466;28;20566;-40
2022/06/30 11:22:17;;;;;;;11.55;2.60;;;27.30;99.90;;;;;;5093662;28;20178;-41
2022/06/30 11:24:47;;;;;;;9.10;2.65;;;27.20;99.90;;;;;;5093318;28;20228;-41
2022/06/30 11:27:21;;;;;;;5.53;2.08;;;27.30;99.90;;;;;;5091988;28;20175;-39
2022/06/30 11:29:48;;;;;;;7.80;2.92;;;27.30;99.90;;;;;;5093482;28;20256;-41
2022/06/30 11:32:14;;;;;;;3.65;2.42;;;27.30;99.90;;;;;;5093499;28;20195;-41
2022/06/30 11:34:41;;;;;;;5.72;3.40;;;27.50;99.90;;;;;;5093266;28;20171;-38
2022/06/30 11:37:10;;;;;;;4.05;2.35;;;27.50;99.90;;;;;;5093274;28;20254;-41
2022/06/30 11:39:36;;;;;;;4.18;2.10;;;27.50;99.90;;;;;;5093366;28;20278;-40
2022/06/30 11:42:11;;;;;;;3.90;1.83;;;27.50;99.90;;;;;;5096872;28;20254;-40
2022/06/30 11:44:39;;;;;;;7.72;2.00;;;27.70;99.90;;;;;;5097429;28;20159;-42
2022/06/30 11:47:07;;;;;;;5.30;2.22;;;27.80;99.90;;;;;;5097366;28;20183;-37
2022/06/30 11:49:43;;;;;;;2.35;1.85;;;28.00;99.90;;;;;;5096946;28;20281;-40
2022/06/30 11:52:20;;;;;;;3.80;2.20;;;28.00;99.90;;;;;;5096835;28;20202;-39
2022/06/30 11:54:57;;;;;;;8.73;2.10;;;28.20;99.90;;;;;;5097529;28;20247;-39
2022/06/30 11:57:31;;;;;;;4.63;1.80;;;28.30;99.90;;;;;;5097811;28;20212;-39
2022/06/30 12:00:08;;;;;;;5.50;1.92;;;28.40;99.90;;;;;;5097072;28;20305;-38
2022/06/30 12:02:35;;;;;;;5.57;2.50;;;28.40;99.90;;;;;;5097563;28;20204;-39
2022/06/30 12:05:04;;;;;;;5.45;1.98;;;28.50;99.90;;;;;;5098141;28;20183;-40
2022/06/30 12:07:30;;;;;;;5.20;2.50;;;28.60;99.90;;;;;;5097237;28;20228;-38
2022/06/30 12:09:57;;;;;;;4.28;2.45;;;28.70;99.90;;;;;;5096796;28;20197;-41
2022/06/30 12:12:28;;;;;;;5.03;2.30;;;28.70;99.90;;;;;;5096498;28;20191;-41
2022/06/30 12:14:56;;;;;;;4.68;2.03;;;28.80;99.90;;;;;;5097722;28;20182;-40
2022/06/30 12:17:22;;;;;;;3.38;1.83;;;28.80;99.90;;;;;;5096742;28;20534;-39
2022/06/30 12:19:48;;;;;;;6.00;2.03;;;28.90;99.90;;;;;;5096644;28;20195;-41
2022/06/30 12:22:14;;;;;;;6.90;2.22;;;28.90;99.90;;;;;;5096688;28;20186;-40
2022/06/30 12:24:41;;;;;;;4.00;2.08;;;29.00;99.90;;;;;;5096342;28;20183;-39
2022/06/30 12:27:08;;;;;;;6.03;2.70;;;29.10;99.90;;;;;;5096625;28;20183;-41
2022/06/30 12:29:34;;;;;;;3.33;1.83;;;29.10;99.90;;;;;;5096225;28;20186;-41
2022/06/30 12:32:10;;;;;;;4.97;1.92;;;29.10;99.90;;;;;;5096115;28;20252;-41
2022/06/30 12:34:54;;;;;;;7.47;2.42;;;29.40;99.90;;;;;;5096230;28;20687;-40
2022/06/30 12:37:31;;;;;;;7.38;2.28;;;29.60;99.90;;;;;;5096635;28;20163;-41
2022/06/30 12:40:00;;;;;;;3.40;1.85;;;29.60;99.90;;;;;;5096291;28;20677;-41
2022/06/30 12:42:37;;;;;;;4.28;2.00;;;29.80;99.90;;;;;;5096147;28;20253;-40
2022/06/30 12:45:03;;;;;;;3.15;1.92;;;29.60;99.90;;;;;;5096271;28;20179;-41
2022/06/30 12:47:30;;;;;;;4.68;2.10;;;29.40;99.90;;;;;;5095908;28;20666;-41
2022/06/30 12:49:55;;;;;;;3.85;1.70;;;29.50;99.90;;;;;;5096059;28;20198;-41
2022/06/30 12:52:21;;;;;;;5.85;2.00;;;29.50;99.90;;;;;;5095905;28;20681;-41
2022/06/30 12:54:55;;;;;;;6.43;2.05;;;29.60;99.90;;;;;;5095753;28;20171;-40
2022/06/30 12:57:22;;;;;;;8.30;2.30;;;29.80;99.90;;;;;;5095750;28;20687;-38